Time;durP1;ratioP1;P1;durP2;ratioP2;P2;SDS_P1;SDS_P2;PMS_P1;PMS_P2;Temp;Humidity;BMP_temperature;BMP_pressure;BME280_temperature;BME280_humidity;BME280_pressure;Samples;Min_cycle;Max_cycle;Signal;HPM_P1;HPM_P2
2023/07/27 00:00:19;;;;;;;3.95;2.22;;;22.60;1.00;;;;;;4841240;29;20421;-59
2023/07/27 00:02:45;;;;;;;4.60;2.28;;;22.60;1.00;;;;;;4825169;29;20083;-59
2023/07/27 00:05:14;;;;;;;3.38;1.95;;;22.60;1.00;;;;;;4840985;29;20493;-59
2023/07/27 00:07:41;;;;;;;3.58;1.92;;;22.60;1.00;;;;;;4840815;29;20386;-60
2023/07/27 00:14:05;;;;;;;2.90;1.50;;;22.60;1.00;;;;;;4785177;30;20529;-60
2023/07/27 00:16:32;;;;;;;4.25;2.13;;;22.60;1.00;;;;;;4776357;30;20116;-60
2023/07/27 00:19:00;;;;;;;4.78;1.85;;;22.60;1.00;;;;;;4786387;30;20517;-59
2023/07/27 00:21:27;;;;;;;3.42;1.92;;;22.50;1.00;;;;;;4786561;30;20051;-60
2023/07/27 00:23:54;;;;;;;3.05;1.80;;;22.60;1.00;;;;;;4772251;30;20414;-59
2023/07/27 00:26:20;;;;;;;4.20;1.83;;;22.60;1.00;;;;;;4786537;30;20039;-60
2023/07/27 00:28:47;;;;;;;3.97;2.10;;;22.50;1.00;;;;;;4770013;30;20047;-59
2023/07/27 00:31:14;;;;;;;3.63;2.00;;;22.50;1.00;;;;;;4770507;30;20055;-60
2023/07/27 00:33:41;;;;;;;3.60;1.77;;;22.50;1.00;;;;;;4786707;30;20049;-60
2023/07/27 00:36:08;;;;;;;2.67;1.55;;;22.60;1.00;;;;;;4786570;30;20395;-60
2023/07/27 00:38:35;;;;;;;3.25;1.73;;;22.50;1.00;;;;;;4770072;30;20715;-60
2023/07/27 00:41:02;;;;;;;4.03;2.00;;;22.50;1.00;;;;;;4770561;30;20503;-60
2023/07/27 00:43:37;;;;;;;3.22;1.83;;;22.50;1.00;;;;;;4776908;30;20086;-80
2023/07/27 00:46:04;;;;;;;4.10;1.98;;;22.50;1.00;;;;;;4814200;29;20050;-59
2023/07/27 00:48:31;;;;;;;3.95;1.67;;;22.50;1.00;;;;;;4808380;29;20498;-59
2023/07/27 00:50:58;;;;;;;4.28;2.55;;;22.50;1.00;;;;;;4809515;29;20045;-59
2023/07/27 00:53:25;;;;;;;3.65;1.98;;;22.50;1.00;;;;;;4809357;29;20082;-59
2023/07/27 00:55:52;;;;;;;3.88;1.90;;;22.50;1.00;;;;;;4825509;29;20409;-59
2023/07/27 00:58:19;;;;;;;3.00;1.70;;;22.50;1.00;;;;;;4825791;29;20069;-57
2023/07/27 01:00:46;;;;;;;5.10;1.95;;;22.50;1.00;;;;;;4825599;29;20414;-59
2023/07/27 01:03:13;;;;;;;4.95;1.70;;;22.50;1.00;;;;;;4825760;29;20424;-60
2023/07/27 01:05:40;;;;;;;4.63;1.48;;;22.50;1.00;;;;;;4816619;29;20594;-57
2023/07/27 01:08:07;;;;;;;5.47;2.45;;;22.50;1.00;;;;;;4826250;29;20720;-59
2023/07/27 01:10:50;;;;;;;3.28;1.30;;;22.50;1.00;;;;;;4810547;29;20055;-58
2023/07/27 01:13:51;;;;;;;4.03;1.85;;;22.50;1.00;;;;;;4820042;29;20138;-58
2023/07/27 01:16:34;;;;;;;5.15;1.83;;;22.50;1.00;;;;;;4785307;29;20157;-57
2023/07/27 01:19:30;;;;;;;3.53;2.08;;;22.50;1.00;;;;;;4807217;29;20116;-59
2023/07/27 01:22:31;;;;;;;2.33;1.30;;;22.50;1.00;;;;;;4801813;29;20050;-59
2023/07/27 01:25:42;;;;;;;3.30;1.80;;;22.50;1.00;;;;;;4808838;29;20057;-59
2023/07/27 01:28:46;;;;;;;3.92;1.77;;;22.50;1.00;;;;;;4781742;29;20454;-59
2023/07/27 01:31:20;;;;;;;6.25;1.95;;;22.50;1.00;;;;;;4825209;29;20050;-59
2023/07/27 01:33:57;;;;;;;3.40;1.42;;;22.50;1.00;;;;;;4825021;29;20051;-59
2023/07/27 01:36:27;;;;;;;6.18;1.73;;;22.50;1.00;;;;;;4825073;29;20046;-59
2023/07/27 01:38:58;;;;;;;5.80;2.22;;;22.50;1.00;;;;;;4825141;29;20080;-59
2023/07/27 01:41:27;;;;;;;5.93;1.92;;;22.50;1.00;;;;;;4802755;29;20370;-59
2023/07/27 01:43:56;;;;;;;2.75;1.73;;;22.50;1.00;;;;;;4824029;29;20497;-59
2023/07/27 01:46:24;;;;;;;2.25;1.35;;;22.50;1.00;;;;;;4806819;29;20047;-59
2023/07/27 01:48:54;;;;;;;5.18;1.90;;;22.50;1.00;;;;;;4822278;29;20047;-59
2023/07/27 01:51:23;;;;;;;6.50;1.58;;;22.50;1.00;;;;;;4818051;29;20045;-59
2023/07/27 01:53:52;;;;;;;4.28;1.85;;;22.50;1.00;;;;;;4816747;29;20049;-59
2023/07/27 01:56:21;;;;;;;2.78;1.30;;;22.50;1.00;;;;;;4804779;29;20120;-59
2023/07/27 01:58:49;;;;;;;4.85;1.65;;;22.50;1.00;;;;;;4805722;29;20042;-59
2023/07/27 02:01:16;;;;;;;4.90;2.05;;;22.50;1.00;;;;;;4808424;29;20123;-60
2023/07/27 02:03:43;;;;;;;4.53;1.73;;;22.50;1.00;;;;;;4808512;29;20053;-59
2023/07/27 02:06:12;;;;;;;3.20;1.63;;;22.50;1.00;;;;;;4808124;29;20046;-59
2023/07/27 02:08:40;;;;;;;6.45;1.90;;;22.40;1.00;;;;;;4824324;29;20045;-59
2023/07/27 02:11:09;;;;;;;4.28;1.48;;;22.40;1.00;;;;;;4808246;29;20574;-60
2023/07/27 02:14:00;;;;;;;3.20;1.27;;;22.40;1.00;;;;;;4808068;29;20154;-59
2023/07/27 02:19:57;;;;;;;4.68;1.60;;;22.40;1.00;;;;;;4803104;29;20112;-58
2023/07/27 02:22:26;;;;;;;2.90;1.52;;;22.40;1.00;;;;;;4789743;29;20074;-59
2023/07/27 02:24:54;;;;;;;2.88;1.38;;;22.40;1.00;;;;;;4806176;29;20395;-60
2023/07/27 02:27:22;;;;;;;4.72;1.83;;;22.40;1.00;;;;;;4805817;29;20436;-60
2023/07/27 02:29:49;;;;;;;6.13;2.08;;;22.40;1.00;;;;;;4789823;29;20043;-59
2023/07/27 02:32:16;;;;;;;5.70;1.98;;;22.40;1.00;;;;;;4806103;29;20047;-60
2023/07/27 02:34:42;;;;;;;2.50;1.50;;;22.40;1.00;;;;;;4806006;29;20485;-59
2023/07/27 02:37:12;;;;;;;2.78;1.48;;;22.40;1.00;;;;;;4789662;29;20391;-59
2023/07/27 02:39:39;;;;;;;5.70;1.88;;;22.40;1.00;;;;;;4789366;29;20049;-60
2023/07/27 02:42:06;;;;;;;4.03;1.65;;;22.40;1.00;;;;;;4789782;29;20057;-59
2023/07/27 02:44:33;;;;;;;4.93;1.58;;;22.40;1.00;;;;;;4805852;29;20049;-59
2023/07/27 02:47:00;;;;;;;7.32;2.35;;;22.40;1.00;;;;;;4789450;29;20484;-60
2023/07/27 02:49:27;;;;;;;5.57;1.60;;;22.40;1.00;;;;;;4836696;24;20050;-59
2023/07/27 02:51:54;;;;;;;5.07;1.90;;;22.40;1.00;;;;;;4843764;29;20050;-60
2023/07/27 02:54:20;;;;;;;3.00;1.67;;;22.40;1.00;;;;;;4843632;29;20083;-59
2023/07/27 02:56:48;;;;;;;3.45;1.92;;;22.40;1.00;;;;;;4838569;29;20529;-59
2023/07/27 02:59:23;;;;;;;3.47;1.60;;;22.40;1.00;;;;;;4822594;29;20039;-59
2023/07/27 03:01:50;;;;;;;3.50;1.33;;;22.40;1.00;;;;;;4822536;29;20051;-60
2023/07/27 03:04:22;;;;;;;4.90;1.70;;;22.40;1.00;;;;;;4822731;29;20600;-60
2023/07/27 03:06:49;;;;;;;4.13;1.38;;;22.40;1.00;;;;;;4822396;29;20045;-60
2023/07/27 03:09:19;;;;;;;2.78;1.48;;;22.30;1.00;;;;;;4837439;29;20046;-60
2023/07/27 03:11:47;;;;;;;3.42;1.65;;;22.40;1.00;;;;;;4822855;29;20046;-59
2023/07/27 03:14:14;;;;;;;4.22;2.13;;;22.40;1.00;;;;;;4818514;29;20043;-60
2023/07/27 03:16:41;;;;;;;6.82;2.05;;;22.30;1.00;;;;;;4818654;29;20127;-60
2023/07/27 03:19:08;;;;;;;6.18;1.70;;;22.30;1.00;;;;;;4837047;29;20042;-60
2023/07/27 03:21:34;;;;;;;4.60;1.83;;;22.30;1.00;;;;;;5092086;24;20054;-60
2023/07/27 03:24:01;;;;;;;2.30;1.40;;;22.30;1.00;;;;;;4840459;29;20052;-60
2023/07/27 03:26:28;;;;;;;2.83;1.40;;;22.30;1.00;;;;;;4840106;29;20049;-60
2023/07/27 03:28:55;;;;;;;3.60;1.88;;;22.30;1.00;;;;;;4839854;29;20065;-60
2023/07/27 03:31:27;;;;;;;4.15;1.92;;;22.30;1.00;;;;;;4841583;29;20049;-60
2023/07/27 03:33:54;;;;;;;2.97;1.88;;;22.30;1.00;;;;;;4840437;29;20038;-60
2023/07/27 03:36:21;;;;;;;2.17;1.33;;;22.30;1.00;;;;;;4841371;29;20046;-60
2023/07/27 03:38:48;;;;;;;4.28;1.80;;;22.30;1.00;;;;;;4839746;29;20230;-60
2023/07/27 03:41:15;;;;;;;2.10;1.13;;;22.30;1.00;;;;;;4840088;29;20438;-60
2023/07/27 03:43:42;;;;;;;3.15;1.90;;;22.30;1.00;;;;;;4841456;29;20044;-60
2023/07/27 03:46:09;;;;;;;2.95;1.17;;;22.30;1.00;;;;;;4855181;29;20133;-60
2023/07/27 03:48:36;;;;;;;1.92;1.35;;;22.30;1.00;;;;;;4839972;29;20075;-60
2023/07/27 03:51:03;;;;;;;3.00;1.48;;;22.30;1.00;;;;;;4855334;29;20046;-60
2023/07/27 03:53:54;;;;;;;3.40;1.50;;;22.30;1.00;;;;;;4846475;29;20038;-80
2023/07/27 03:56:36;;;;;;;3.03;1.65;;;22.30;1.00;;;;;;4800500;29;20068;-60
2023/07/27 03:59:03;;;;;;;3.40;1.40;;;22.30;1.00;;;;;;4821443;29;20053;-58
2023/07/27 04:01:30;;;;;;;4.35;1.40;;;22.30;1.00;;;;;;4821813;29;20481;-60
2023/07/27 04:03:57;;;;;;;2.53;1.90;;;22.30;1.00;;;;;;4821795;29;20528;-59
2023/07/27 04:06:24;;;;;;;2.55;1.42;;;22.30;1.00;;;;;;4821694;29;20226;-60
2023/07/27 04:08:50;;;;;;;3.38;1.45;;;22.30;1.00;;;;;;4821888;29;20057;-60
2023/07/27 04:11:17;;;;;;;2.83;1.20;;;22.30;1.00;;;;;;4808941;29;20494;-60
2023/07/27 04:13:44;;;;;;;3.17;1.50;;;22.30;1.00;;;;;;4811894;29;20039;-60
2023/07/27 04:16:11;;;;;;;2.65;1.55;;;22.30;1.00;;;;;;4815167;29;20062;-60
2023/07/27 04:18:38;;;;;;;2.88;1.10;;;22.30;1.00;;;;;;4821577;29;20141;-60
2023/07/27 04:21:05;;;;;;;6.60;1.63;;;22.20;1.00;;;;;;4789497;29;20107;-60
2023/07/27 04:23:31;;;;;;;3.40;1.58;;;22.30;1.00;;;;;;4825624;29;20450;-61
2023/07/27 04:26:24;;;;;;;9.13;2.33;;;22.30;1.00;;;;;;4829851;29;20039;-82
2023/07/27 04:28:50;;;;;;;9.05;1.85;;;22.20;1.00;;;;;;4803769;29;20558;-60
2023/07/27 04:31:17;;;;;;;5.35;1.92;;;22.20;1.00;;;;;;4792413;29;20047;-60
2023/07/27 04:33:44;;;;;;;8.30;2.03;;;22.20;1.00;;;;;;4792170;29;20061;-60
2023/07/27 04:36:11;;;;;;;4.57;2.08;;;22.20;1.00;;;;;;4808267;29;20712;-60
2023/07/27 04:38:38;;;;;;;18.02;3.17;;;22.20;1.00;;;;;;4806955;29;20467;-59
2023/07/27 04:41:05;;;;;;;2.83;1.73;;;22.20;1.00;;;;;;4806997;29;20134;-61
2023/07/27 04:43:31;;;;;;;4.68;2.05;;;22.20;1.00;;;;;;4808238;29;20460;-60
2023/07/27 04:45:58;;;;;;;6.55;1.60;;;22.20;1.00;;;;;;4806539;29;20077;-58
2023/07/27 04:48:25;;;;;;;6.68;2.65;;;22.20;1.00;;;;;;4807786;29;20558;-59
2023/07/27 04:50:53;;;;;;;4.43;1.80;;;22.20;1.00;;;;;;4806834;29;20130;-59
2023/07/27 04:53:21;;;;;;;5.13;1.60;;;22.20;1.00;;;;;;4813308;29;20065;-60
2023/07/27 04:55:48;;;;;;;5.47;1.65;;;22.20;1.00;;;;;;4817437;29;20067;-59
2023/07/27 04:58:15;;;;;;;4.60;2.47;;;22.20;1.00;;;;;;4814647;29;20451;-58
2023/07/27 05:00:43;;;;;;;5.32;1.45;;;22.20;1.00;;;;;;4807911;29;20623;-60
2023/07/27 05:03:10;;;;;;;4.65;1.55;;;22.20;1.00;;;;;;4807874;29;20051;-59
2023/07/27 05:05:43;;;;;;;4.15;1.83;;;22.20;1.00;;;;;;4807522;29;20061;-58
2023/07/27 05:08:10;;;;;;;;;;;22.20;1.00;;;;;;4808009;29;20043;-58
2023/07/27 05:10:40;;;;;;;4.90;1.23;;;22.10;1.00;;;;;;4807605;29;20023;-59
2023/07/27 05:13:07;;;;;;;3.55;1.35;;;22.10;1.00;;;;;;4807349;29;20055;-58
2023/07/27 05:15:35;;;;;;;4.03;1.80;;;22.10;1.00;;;;;;4807390;29;20043;-58
2023/07/27 05:18:02;;;;;;;3.20;1.25;;;22.10;1.00;;;;;;4807376;29;20095;-60
2023/07/27 05:20:28;;;;;;;4.88;1.85;;;22.10;1.00;;;;;;4807389;29;20053;-59
2023/07/27 05:22:55;;;;;;;1.90;1.05;;;22.10;1.00;;;;;;4807380;29;20144;-59
2023/07/27 05:25:22;;;;;;;4.05;1.45;;;22.10;1.00;;;;;;4807299;29;20077;-58
2023/07/27 05:27:49;;;;;;;4.88;1.35;;;22.10;1.00;;;;;;4811283;29;20386;-59
2023/07/27 05:30:16;;;;;;;3.65;1.13;;;22.10;1.00;;;;;;4807879;29;21458;-59
2023/07/27 05:32:43;;;;;;;3.92;1.48;;;22.10;1.00;;;;;;4807339;29;20082;-58
2023/07/27 05:35:10;;;;;;;3.15;1.45;;;22.10;1.00;;;;;;4806018;29;20047;-59
2023/07/27 05:37:37;;;;;;;6.28;1.65;;;22.10;1.00;;;;;;4807164;29;20054;-59
2023/07/27 05:40:05;;;;;;;2.97;1.38;;;22.10;1.00;;;;;;4807021;29;20046;-58
2023/07/27 05:42:32;;;;;;;2.65;1.35;;;22.10;1.00;;;;;;4807067;29;20047;-59
2023/07/27 05:44:59;;;;;;;2.42;1.30;;;22.10;1.00;;;;;;4806742;29;20104;-60
2023/07/27 05:47:26;;;;;;;2.00;1.05;;;22.10;1.00;;;;;;4807087;29;20054;-60
2023/07/27 05:49:54;;;;;;;1.90;1.08;;;22.10;1.00;;;;;;4806938;29;20049;-59
2023/07/27 05:52:20;;;;;;;3.00;1.35;;;22.10;1.00;;;;;;4806888;29;20490;-58
2023/07/27 05:54:47;;;;;;;2.00;1.00;;;22.10;1.00;;;;;;4806510;29;20117;-59
2023/07/27 05:57:14;;;;;;;1.70;0.80;;;22.10;1.00;;;;;;4806867;29;20107;-58
2023/07/27 05:59:41;;;;;;;3.13;1.25;;;22.10;1.00;;;;;;4828930;24;20057;-59
2023/07/27 06:02:17;;;;;;;2.25;1.20;;;22.10;1.00;;;;;;4843147;29;20103;-58
2023/07/27 06:04:44;;;;;;;5.22;1.40;;;22.10;1.00;;;;;;4842875;29;20060;-60
2023/07/27 06:07:11;;;;;;;1.33;0.75;;;22.10;1.00;;;;;;4842789;29;20095;-58
2023/07/27 06:09:38;;;;;;;2.50;1.15;;;22.10;1.00;;;;;;4843026;29;20041;-59
2023/07/27 06:12:11;;;;;;;2.55;1.13;;;22.10;1.00;;;;;;4842754;29;20126;-59
2023/07/27 06:14:41;;;;;;;2.75;1.02;;;22.10;1.00;;;;;;4842970;29;20469;-59
2023/07/27 06:17:08;;;;;;;1.63;1.05;;;22.00;1.00;;;;;;4842848;29;20077;-60
2023/07/27 06:19:35;;;;;;;2.22;0.90;;;22.10;1.00;;;;;;4842568;29;20129;-58
2023/07/27 06:22:02;;;;;;;2.65;0.95;;;22.00;1.00;;;;;;4842687;29;20038;-58
2023/07/27 06:24:29;;;;;;;2.40;1.13;;;22.00;1.00;;;;;;4842526;29;20560;-58
2023/07/27 06:26:56;;;;;;;2.13;0.90;;;22.00;1.00;;;;;;4842524;29;20117;-59
2023/07/27 06:29:22;;;;;;;1.35;0.70;;;22.00;1.00;;;;;;4842197;29;20049;-59
2023/07/27 06:31:49;;;;;;;3.22;1.10;;;22.00;1.00;;;;;;4851315;24;20691;-58
2023/07/27 06:34:16;;;;;;;2.03;1.15;;;22.00;1.00;;;;;;4824033;29;20414;-59
2023/07/27 06:36:43;;;;;;;1.92;1.00;;;22.00;1.00;;;;;;4824229;29;20050;-59
2023/07/27 06:39:10;;;;;;;1.55;0.93;;;22.00;1.00;;;;;;4823956;29;20042;-59
2023/07/27 06:41:37;;;;;;;1.38;0.90;;;22.00;1.00;;;;;;4824284;29;20125;-58
2023/07/27 06:44:06;;;;;;;4.40;1.15;;;22.00;1.00;;;;;;4837992;29;20059;-58
2023/07/27 06:46:34;;;;;;;2.42;0.80;;;22.00;1.00;;;;;;4824219;29;20042;-58
2023/07/27 06:49:01;;;;;;;3.72;1.25;;;22.00;1.00;;;;;;4823804;29;20053;-58
2023/07/27 06:51:28;;;;;;;1.65;0.80;;;22.00;1.00;;;;;;4824140;29;20401;-59
2023/07/27 06:53:55;;;;;;;1.45;0.65;;;22.00;1.00;;;;;;4822846;29;20489;-60
2023/07/27 06:56:22;;;;;;;2.75;0.82;;;22.00;1.00;;;;;;4824027;29;20053;-59
2023/07/27 06:58:48;;;;;;;2.35;0.95;;;22.00;1.00;;;;;;4823415;29;20046;-60
2023/07/27 07:01:15;;;;;;;3.08;0.77;;;22.00;1.00;;;;;;4823743;29;20050;-59
2023/07/27 07:03:42;;;;;;;2.25;0.98;;;22.00;1.00;;;;;;4979966;23;21446;-58
2023/07/27 07:06:09;;;;;;;1.40;0.70;;;22.00;1.00;;;;;;4841828;29;20066;-59
2023/07/27 07:08:36;;;;;;;3.50;1.05;;;22.00;1.00;;;;;;4841765;29;20146;-59
2023/07/27 07:11:03;;;;;;;1.20;0.82;;;22.00;1.00;;;;;;4841910;29;20128;-57
2023/07/27 07:13:30;;;;;;;1.60;0.70;;;22.00;1.00;;;;;;4841595;29;20120;-59
2023/07/27 07:15:57;;;;;;;3.67;0.68;;;22.00;1.00;;;;;;4841877;29;20042;-59
2023/07/27 07:18:24;;;;;;;1.25;0.80;;;22.00;1.00;;;;;;4841386;29;20125;-58
2023/07/27 07:20:50;;;;;;;3.08;0.70;;;22.00;1.00;;;;;;4841940;29;20241;-58
2023/07/27 07:23:19;;;;;;;1.23;0.60;;;22.00;1.00;;;;;;4841603;29;20446;-58
2023/07/27 07:25:45;;;;;;;1.15;0.50;;;22.00;1.00;;;;;;4841578;29;20042;-59
2023/07/27 07:28:12;;;;;;;1.08;0.50;;;22.00;1.00;;;;;;4841162;29;20069;-59
2023/07/27 07:30:41;;;;;;;0.90;0.60;;;22.00;1.00;;;;;;4841795;29;20042;-60
2023/07/27 07:33:08;;;;;;;1.05;0.60;;;22.00;1.00;;;;;;4841563;29;20207;-58
2023/07/27 07:35:38;;;;;;;2.00;0.90;;;22.00;1.00;;;;;;4843166;29;20107;-58
2023/07/27 07:38:06;;;;;;;1.25;0.57;;;22.00;1.00;;;;;;4841336;29;20404;-59
2023/07/27 07:40:33;;;;;;;0.80;0.50;;;22.00;1.00;;;;;;4841672;29;20144;-60
2023/07/27 07:43:00;;;;;;;2.80;0.63;;;22.00;1.00;;;;;;4841521;29;20038;-60
2023/07/27 07:45:27;;;;;;;1.05;0.40;;;22.00;1.00;;;;;;4841286;29;20549;-58
2023/07/27 07:47:54;;;;;;;3.10;1.05;;;22.00;1.00;;;;;;4841164;29;20481;-60
2023/07/27 07:50:21;;;;;;;1.00;0.40;;;22.00;1.00;;;;;;4841251;29;20046;-60
2023/07/27 07:52:48;;;;;;;1.58;0.57;;;22.00;1.00;;;;;;4841480;29;20049;-60
2023/07/27 07:55:17;;;;;;;1.10;0.57;;;22.00;1.00;;;;;;4841667;29;20045;-59
2023/07/27 07:57:44;;;;;;;1.40;0.60;;;22.00;1.00;;;;;;4841773;29;20046;-59
2023/07/27 08:00:11;;;;;;;1.30;0.68;;;22.00;1.00;;;;;;4841962;29;20046;-58
2023/07/27 08:02:41;;;;;;;1.45;0.60;;;22.00;1.00;;;;;;4842201;29;20060;-60
2023/07/27 08:05:08;;;;;;;2.00;0.75;;;22.00;1.00;;;;;;4968106;23;20122;-60
2023/07/27 08:07:35;;;;;;;2.00;0.85;;;22.00;1.00;;;;;;4828922;29;20053;-60
2023/07/27 08:10:04;;;;;;;4.25;1.17;;;22.00;1.00;;;;;;4843360;29;20076;-58
2023/07/27 08:12:31;;;;;;;1.30;0.63;;;22.00;1.00;;;;;;4840793;29;20042;-60
2023/07/27 08:14:58;;;;;;;0.73;0.30;;;21.90;1.00;;;;;;4840859;29;20045;-60
2023/07/27 08:17:29;;;;;;;1.50;0.40;;;21.90;1.00;;;;;;4840793;29;20050;-60
2023/07/27 08:19:56;;;;;;;2.17;0.60;;;22.00;1.00;;;;;;4841161;29;20069;-59
2023/07/27 08:22:23;;;;;;;1.38;0.75;;;22.00;1.00;;;;;;4841057;29;20050;-60
2023/07/27 08:24:50;;;;;;;1.70;0.40;;;22.00;1.00;;;;;;4840869;29;20100;-59
2023/07/27 08:27:21;;;;;;;1.30;0.60;;;21.90;1.00;;;;;;4840474;29;20416;-60
2023/07/27 08:29:48;;;;;;;1.10;0.50;;;22.00;1.00;;;;;;4841065;29;20446;-60
2023/07/27 08:32:15;;;;;;;1.27;0.50;;;21.90;1.00;;;;;;4840957;29;20034;-60
2023/07/27 08:34:50;;;;;;;1.13;0.50;;;22.00;1.00;;;;;;4842162;29;20038;-62
2023/07/27 08:37:17;;;;;;;0.80;0.40;;;21.90;1.00;;;;;;4837577;29;20416;-60
2023/07/27 08:39:44;;;;;;;1.63;0.43;;;22.00;1.00;;;;;;4840508;29;20042;-60
2023/07/27 08:42:17;;;;;;;1.98;0.43;;;22.00;1.00;;;;;;4839882;29;20531;-60
2023/07/27 08:44:44;;;;;;;0.55;0.47;;;22.00;1.00;;;;;;4840722;29;20050;-60
2023/07/27 08:47:11;;;;;;;2.28;0.80;;;21.90;1.00;;;;;;4839541;29;20046;-60
2023/07/27 08:49:39;;;;;;;3.45;0.73;;;21.90;1.00;;;;;;4840442;29;20133;-60
2023/07/27 08:52:07;;;;;;;1.52;0.60;;;21.90;1.00;;;;;;4840914;29;20489;-60
2023/07/27 08:54:34;;;;;;;2.35;1.00;;;22.00;1.00;;;;;;4840661;29;20113;-60
2023/07/27 08:57:03;;;;;;;1.77;0.57;;;22.00;1.00;;;;;;4834841;29;20050;-58
2023/07/27 08:59:31;;;;;;;1.58;0.45;;;22.00;1.00;;;;;;4831636;29;20069;-58
2023/07/27 09:01:58;;;;;;;1.83;0.80;;;22.00;1.00;;;;;;4840794;29;20070;-60
2023/07/27 09:04:25;;;;;;;1.25;0.47;;;22.00;1.00;;;;;;4840681;29;20061;-60
2023/07/27 09:06:52;;;;;;;1.83;0.50;;;22.00;1.00;;;;;;5184786;23;20087;-57
2023/07/27 09:09:22;;;;;;;1.67;0.77;;;22.00;1.00;;;;;;4822879;29;20043;-59
2023/07/27 09:11:50;;;;;;;1.55;0.50;;;22.00;1.00;;;;;;4824175;29;20055;-59
2023/07/27 09:14:19;;;;;;;1.02;0.30;;;22.00;1.00;;;;;;4825286;29;20046;-59
2023/07/27 09:16:50;;;;;;;1.40;0.50;;;22.00;1.00;;;;;;4824157;29;20065;-59
2023/07/27 09:19:20;;;;;;;2.05;0.50;;;22.00;1.00;;;;;;4825071;29;20046;-59
2023/07/27 09:21:49;;;;;;;1.58;0.52;;;22.00;1.00;;;;;;4825398;29;20046;-60
2023/07/27 09:24:16;;;;;;;1.05;0.38;;;22.00;1.00;;;;;;4825072;29;20088;-59
2023/07/27 09:26:48;;;;;;;0.85;0.38;;;22.00;1.00;;;;;;4824882;29;20052;-59
2023/07/27 09:29:17;;;;;;;1.92;0.40;;;22.00;1.00;;;;;;4824895;29;20046;-60
2023/07/27 09:31:52;;;;;;;1.25;0.40;;;22.00;1.00;;;;;;4825113;29;20470;-57
2023/07/27 09:34:20;;;;;;;2.63;0.55;;;22.00;1.00;;;;;;4825106;29;20058;-59
2023/07/27 09:36:47;;;;;;;1.67;0.38;;;22.00;1.00;;;;;;4825008;29;20046;-58
2023/07/27 09:39:17;;;;;;;2.22;0.40;;;22.00;1.00;;;;;;4961809;23;20050;-56
2023/07/27 09:41:46;;;;;;;0.80;0.50;;;22.00;1.00;;;;;;4825115;29;20038;-57
2023/07/27 09:44:17;;;;;;;0.52;0.20;;;22.00;1.00;;;;;;4824750;29;20047;-58
2023/07/27 09:46:45;;;;;;;1.48;0.60;;;22.00;1.00;;;;;;4824898;29;20058;-58
2023/07/27 09:49:14;;;;;;;1.58;0.55;;;22.00;1.00;;;;;;4824868;29;20042;-59
2023/07/27 09:51:42;;;;;;;2.75;0.60;;;22.00;1.00;;;;;;4824939;29;20121;-59
2023/07/27 09:54:11;;;;;;;4.30;0.50;;;22.00;1.00;;;;;;4824645;29;20049;-59
2023/07/27 09:56:39;;;;;;;1.75;0.60;;;22.00;1.00;;;;;;4824730;29;20047;-59
2023/07/27 09:59:07;;;;;;;1.00;0.65;;;22.00;1.00;;;;;;4823071;29;20075;-59
2023/07/27 10:01:34;;;;;;;2.72;1.08;;;22.00;1.00;;;;;;4824773;29;20046;-59
2023/07/27 10:04:02;;;;;;;0.75;0.35;;;22.00;1.00;;;;;;4824579;29;20405;-59
2023/07/27 10:06:30;;;;;;;0.95;0.47;;;22.00;1.00;;;;;;4824604;29;20050;-58
2023/07/27 10:08:57;;;;;;;1.08;0.30;;;22.00;1.00;;;;;;4824547;29;20043;-59
2023/07/27 10:11:30;;;;;;;2.05;0.57;;;22.00;1.00;;;;;;4824440;29;20038;-59
2023/07/27 10:14:16;;;;;;;0.85;0.50;;;22.00;1.00;;;;;;4824488;29;20133;-59
2023/07/27 10:17:04;;;;;;;1.45;0.50;;;22.00;1.00;;;;;;4824451;29;20138;-59
2023/07/27 10:19:45;;;;;;;1.02;0.40;;;22.00;1.00;;;;;;4824020;29;20569;-58
2023/07/27 10:22:17;;;;;;;1.63;0.28;;;22.00;1.00;;;;;;4824647;29;20141;-58
2023/07/27 10:24:56;;;;;;;0.97;0.30;;;22.00;1.00;;;;;;4822982;29;20050;-60
2023/07/27 10:27:24;;;;;;;2.38;0.30;;;22.00;1.00;;;;;;4824109;29;20414;-59
2023/07/27 10:30:10;;;;;;;9.27;0.68;;;22.00;1.00;;;;;;4824252;29;20095;-59
2023/07/27 10:32:37;;;;;;;2.30;0.82;;;22.00;1.00;;;;;;4824196;29;20079;-57
2023/07/27 10:35:08;;;;;;;0.50;0.28;;;22.00;1.00;;;;;;4824056;29;20052;-57
2023/07/27 10:37:54;;;;;;;1.25;0.45;;;22.00;1.00;;;;;;4823849;29;20092;-59
2023/07/27 10:40:30;;;;;;;1.25;0.40;;;22.10;1.00;;;;;;4824613;29;20057;-57
2023/07/27 10:43:01;;;;;;;4.28;0.55;;;22.10;1.00;;;;;;4823170;29;20126;-59
2023/07/27 10:45:28;;;;;;;2.08;0.60;;;22.10;1.00;;;;;;4823863;29;20058;-59
2023/07/27 10:47:57;;;;;;;1.48;0.35;;;22.10;1.00;;;;;;4823755;29;20458;-59
2023/07/27 10:50:24;;;;;;;1.17;0.43;;;22.10;1.00;;;;;;4822464;29;20058;-59
2023/07/27 10:52:53;;;;;;;0.98;0.17;;;22.10;1.00;;;;;;4809541;29;20042;-58
2023/07/27 10:55:21;;;;;;;1.92;0.47;;;22.10;1.00;;;;;;4824012;29;20103;-58
2023/07/27 10:57:49;;;;;;;0.70;0.30;;;22.10;1.00;;;;;;4823786;29;20252;-59
2023/07/27 11:00:16;;;;;;;0.90;0.30;;;22.10;1.00;;;;;;4823824;29;20057;-59
2023/07/27 11:02:44;;;;;;;2.28;0.40;;;22.10;1.00;;;;;;4823823;29;20043;-59
2023/07/27 11:05:13;;;;;;;1.23;0.30;;;22.10;1.00;;;;;;4823758;29;20099;-59
2023/07/27 11:07:46;;;;;;;2.10;0.52;;;22.10;1.00;;;;;;4823311;29;20046;-60
2023/07/27 11:10:15;;;;;;;1.10;0.20;;;22.10;1.00;;;;;;4825584;29;20066;-60
2023/07/27 11:12:54;;;;;;;0.88;0.20;;;22.10;1.00;;;;;;4822388;29;20054;-59
2023/07/27 11:15:23;;;;;;;2.00;0.50;;;22.20;1.00;;;;;;4823582;29;20479;-59
2023/07/27 11:17:55;;;;;;;1.38;0.60;;;22.10;1.00;;;;;;4823392;29;20115;-59
2023/07/27 11:20:25;;;;;;;1.27;0.43;;;22.10;1.00;;;;;;4823653;29;20103;-59
2023/07/27 11:22:55;;;;;;;0.80;0.30;;;22.10;1.00;;;;;;4823623;29;20038;-59
2023/07/27 11:25:23;;;;;;;3.03;0.40;;;22.20;1.00;;;;;;4823713;29;20043;-60
2023/07/27 11:27:51;;;;;;;2.13;0.88;;;22.20;1.00;;;;;;4823082;29;20129;-59
2023/07/27 11:30:21;;;;;;;0.45;0.20;;;22.20;1.00;;;;;;4823671;29;20466;-59
2023/07/27 11:33:02;;;;;;;2.08;0.60;;;22.20;1.00;;;;;;4822625;29;20125;-59
2023/07/27 11:35:31;;;;;;;1.10;0.30;;;22.20;1.00;;;;;;4823253;29;20054;-59
2023/07/27 11:38:00;;;;;;;2.78;0.50;;;22.20;1.00;;;;;;4823271;29;20462;-60
2023/07/27 11:41:18;;;;;;;1.52;0.40;;;22.20;1.00;;;;;;4824868;29;20050;-77
2023/07/27 11:43:53;;;;;;;1.58;0.45;;;22.20;1.00;;;;;;4821470;29;20130;-60
2023/07/27 11:46:21;;;;;;;1.80;0.40;;;22.20;1.00;;;;;;4823296;29;20431;-59
2023/07/27 11:48:51;;;;;;;0.95;0.40;;;22.20;1.00;;;;;;4822605;29;20308;-58
2023/07/27 11:51:31;;;;;;;1.10;0.20;;;22.20;1.00;;;;;;4823241;29;20105;-59
2023/07/27 11:53:58;;;;;;;2.67;0.57;;;22.20;1.00;;;;;;4823133;29;20325;-59
2023/07/27 11:56:25;;;;;;;2.22;0.40;;;22.20;1.00;;;;;;4823207;29;20121;-60
2023/07/27 11:58:52;;;;;;;0.82;0.35;;;22.20;1.00;;;;;;4822669;29;20050;-60
2023/07/27 12:01:19;;;;;;;1.35;0.30;;;22.20;1.00;;;;;;4823043;29;20497;-60
2023/07/27 12:03:45;;;;;;;1.60;0.40;;;22.20;1.00;;;;;;4822954;29;20054;-60
2023/07/27 12:06:13;;;;;;;0.95;0.32;;;22.20;1.00;;;;;;4822949;29;20150;-59
2023/07/27 12:08:41;;;;;;;0.80;0.43;;;22.30;1.00;;;;;;4822631;29;20051;-60
2023/07/27 12:11:12;;;;;;;0.90;0.17;;;22.30;1.00;;;;;;4823177;29;20074;-60
2023/07/27 12:13:44;;;;;;;1.25;0.35;;;22.30;1.00;;;;;;4819164;29;20098;-59
2023/07/27 12:16:16;;;;;;;0.80;0.30;;;22.30;1.00;;;;;;4811643;29;20061;-59
2023/07/27 12:18:47;;;;;;;1.50;0.32;;;22.30;1.00;;;;;;4821722;29;20705;-58
2023/07/27 12:21:16;;;;;;;1.35;0.43;;;22.30;1.00;;;;;;4822878;29;20065;-59
2023/07/27 12:23:46;;;;;;;0.65;0.30;;;22.30;1.00;;;;;;4822532;29;20057;-59
2023/07/27 12:26:13;;;;;;;1.98;0.40;;;22.30;1.00;;;;;;4822877;29;20486;-59
2023/07/27 12:28:43;;;;;;;1.48;0.30;;;22.30;1.00;;;;;;4822275;29;20401;-59
2023/07/27 12:31:10;;;;;;;2.00;0.80;;;22.30;1.00;;;;;;4822893;29;20049;-59
2023/07/27 12:33:39;;;;;;;1.80;0.30;;;22.30;1.00;;;;;;4822582;29;20099;-59
2023/07/27 12:36:06;;;;;;;1.08;0.55;;;22.30;1.00;;;;;;4822673;29;20045;-59
2023/07/27 12:38:33;;;;;;;0.70;0.22;;;22.30;1.00;;;;;;4822274;29;20474;-60
2023/07/27 12:41:03;;;;;;;1.25;0.40;;;22.30;1.00;;;;;;4822722;29;20427;-60
2023/07/27 12:43:30;;;;;;;1.05;0.40;;;22.30;1.00;;;;;;4823812;29;20054;-60
2023/07/27 12:45:57;;;;;;;1.83;0.40;;;22.30;1.00;;;;;;4819436;29;20129;-59
2023/07/27 12:48:24;;;;;;;1.95;0.32;;;22.30;1.00;;;;;;4825575;29;20533;-59
2023/07/27 12:50:51;;;;;;;1.73;0.43;;;22.40;1.00;;;;;;4826016;29;20134;-59
2023/07/27 12:53:17;;;;;;;1.08;0.52;;;22.40;1.00;;;;;;4825997;29;20048;-58
2023/07/27 12:55:44;;;;;;;1.77;0.35;;;22.40;1.00;;;;;;4825693;29;20042;-60
2023/07/27 12:58:11;;;;;;;1.10;0.40;;;22.40;1.00;;;;;;4825620;29;20516;-59
2023/07/27 13:00:38;;;;;;;1.55;0.40;;;22.40;1.00;;;;;;4825597;29;20489;-59
2023/07/27 13:03:05;;;;;;;2.13;0.40;;;22.40;1.00;;;;;;4825810;29;20105;-58
2023/07/27 13:05:32;;;;;;;1.75;0.50;;;22.40;1.00;;;;;;4824330;29;20058;-57
2023/07/27 13:08:00;;;;;;;2.00;0.50;;;22.40;1.00;;;;;;4825236;29;20065;-59
2023/07/27 13:10:27;;;;;;;0.80;0.40;;;22.40;1.00;;;;;;4825500;29;20050;-59
2023/07/27 13:12:53;;;;;;;1.58;0.52;;;22.40;1.00;;;;;;4825333;29;20121;-60
2023/07/27 13:15:20;;;;;;;2.92;0.50;;;22.40;1.00;;;;;;4822254;29;20050;-59